Wilmington, OH

10:17 PM EDT on September 03, 2015 (GMT -0400)
Country Manor | | Change Station
CLOSE
Current Station
Personal Weather Station
Location: Wilmington, OH
Elevation: 1004 ft
Nearby Weather Stations

Elev 1004 ft 39.44 °N, 83.90 °W | Updated 9 seconds ago

Clear
Clear
72.4 °F
Feels Like 70 °F
N
0.0
Wind Variable Wind from WSW
Gusts 0.0 mph

Today
High -- | Low -- °F
--% Chance of Precip.
Yesterday
High -- | Low -- °F
Precip. -- in
7:05 AM 8:03 PM
Waning Gibbous, 64% visible
Pressure 29.95 in
Visibility 7.0 miles
Clouds Clear
Heat Index 70 °F
Dew Point 69 °F
Humidity 88%
Rainfall 0.00 in
Snow Depth Not available.
UV 0 out of 12
Pollen 10.50 out of 12
Air Quality Not available.
Flu Activity Not available.
METAR KILN 040154Z AUTO 00000KT 7SM CLR 22/21 A2998 RMK AO2 SLP141 T02220206
Pressure 29.95 in
Visibility 7.0 miles
Clouds Clear
Heat Index 70 °F
Dew Point 69 °F
Humidity 88%
Rainfall 0.00 in
Snow Depth Not available.
UV 0 out of 12
Pollen 10.50 out of 12
Air Quality Not available.
Flu Activity Not available.
METAR KILN 040154Z AUTO 00000KT 7SM CLR 22/21 A2998 RMK AO2 SLP141 T02220206

10-Day Weather Forecast

×

Almanac

Astronomy

Sep. 03, 2015 Rise Set
Actual Time
Civil Twilight
Nautical Twilight
Astronomical Twilight
Moon
Length of Visible Light
Length of Day
Tomorrow will be .
, % of the Moon is Illuminated

Today's Extremes

State Highs State Lows

Community

WunderPhotos

Upload Photos

1,852,096 photos uploaded!

WunderBlogs® & News

Nearby

Air Quality

  Air Quality AQ Index Pollutant
Not available.

Snow Depth

Station Depth Elevation

Earthquake Activity

City Distance Mag. Time & Date
Minimum magnitude displayed is 2.5.

Coastal Water Temperatures

Place Temperature

Stations

Nearby Weather Stations

Station Location Temp. Windchill Dew Point Humidity Wind Precip. Elev Updated Type